sensor_id;sensor_type;location;lat;lon;timestamp;P1;durP1;ratioP1;P2;durP2;ratioP2
18695;SDS011;22617;43.690;27.956;2022-07-23T00:01:39;3.53;;;1.55;;
18695;SDS011;22617;43.690;27.956;2022-07-23T00:06:43;3.20;;;1.85;;
18695;SDS011;22617;43.690;27.956;2022-07-23T00:11:46;2.72;;;1.88;;
18695;SDS011;22617;43.690;27.956;2022-07-23T00:16:49;2.95;;;1.92;;
18695;SDS011;22617;43.690;27.956;2022-07-23T00:21:52;2.20;;;1.63;;
18695;SDS011;22617;43.690;27.956;2022-07-23T00:26:55;2.63;;;1.77;;
18695;SDS011;22617;43.690;27.956;2022-07-23T00:31:58;2.70;;;1.90;;
18695;SDS011;22617;43.690;27.956;2022-07-23T00:37:02;3.13;;;1.80;;
18695;SDS011;22617;43.690;27.956;2022-07-23T00:42:05;2.03;;;1.75;;
18695;SDS011;22617;43.690;27.956;2022-07-23T00:47:08;2.97;;;1.85;;
18695;SDS011;22617;43.690;27.956;2022-07-23T00:52:11;2.60;;;2.05;;
18695;SDS011;22617;43.690;27.956;2022-07-23T00:57:14;1.98;;;1.77;;
18695;SDS011;22617;43.690;27.956;2022-07-23T01:02:17;2.53;;;2.00;;
18695;SDS011;22617;43.690;27.956;2022-07-23T01:07:20;2.38;;;2.00;;
18695;SDS011;22617;43.690;27.956;2022-07-23T01:12:24;3.53;;;2.30;;
18695;SDS011;22617;43.690;27.956;2022-07-23T01:17:27;2.85;;;2.10;;
18695;SDS011;22617;43.690;27.956;2022-07-23T01:22:30;5.53;;;1.98;;
18695;SDS011;22617;43.690;27.956;2022-07-23T01:27:33;3.92;;;1.90;;
18695;SDS011;22617;43.690;27.956;2022-07-23T01:32:38;4.43;;;2.10;;
18695;SDS011;22617;43.690;27.956;2022-07-23T01:37:42;3.17;;;1.92;;
18695;SDS011;22617;43.690;27.956;2022-07-23T01:42:45;4.53;;;2.30;;
18695;SDS011;22617;43.690;27.956;2022-07-23T01:47:48;3.70;;;2.08;;
18695;SDS011;22617;43.690;27.956;2022-07-23T01:52:52;2.88;;;2.03;;
18695;SDS011;22617;43.690;27.956;2022-07-23T01:57:55;3.03;;;2.15;;
18695;SDS011;22617;43.690;27.956;2022-07-23T02:03:02;4.70;;;2.00;;
18695;SDS011;22617;43.690;27.956;2022-07-23T02:08:06;1.98;;;1.75;;
18695;SDS011;22617;43.690;27.956;2022-07-23T02:13:11;4.20;;;2.33;;
18695;SDS011;22617;43.690;27.956;2022-07-23T02:18:19;2.38;;;1.88;;
18695;SDS011;22617;43.690;27.956;2022-07-23T02:23:23;5.40;;;2.40;;
18695;SDS011;22617;43.690;27.956;2022-07-23T02:28:27;2.75;;;1.90;;
18695;SDS011;22617;43.690;27.956;2022-07-23T02:33:31;2.22;;;2.00;;
18695;SDS011;22617;43.690;27.956;2022-07-23T02:38:34;3.65;;;2.00;;
18695;SDS011;22617;43.690;27.956;2022-07-23T02:43:38;4.60;;;2.38;;
18695;SDS011;22617;43.690;27.956;2022-07-23T02:48:41;3.15;;;2.40;;
18695;SDS011;22617;43.690;27.956;2022-07-23T02:53:44;2.63;;;2.13;;
18695;SDS011;22617;43.690;27.956;2022-07-23T02:58:47;4.35;;;2.25;;
18695;SDS011;22617;43.690;27.956;2022-07-23T03:03:50;2.17;;;1.90;;
18695;SDS011;22617;43.690;27.956;2022-07-23T03:08:53;2.90;;;2.10;;
18695;SDS011;22617;43.690;27.956;2022-07-23T03:13:56;2.85;;;2.30;;
18695;SDS011;22617;43.690;27.956;2022-07-23T03:18:59;3.95;;;2.30;;
18695;SDS011;22617;43.690;27.956;2022-07-23T03:24:08;3.95;;;2.30;;
18695;SDS011;22617;43.690;27.956;2022-07-23T03:29:11;2.45;;;1.83;;
18695;SDS011;22617;43.690;27.956;2022-07-23T03:34:16;4.55;;;2.30;;
18695;SDS011;22617;43.690;27.956;2022-07-23T03:39:21;2.97;;;2.38;;
18695;SDS011;22617;43.690;27.956;2022-07-23T03:44:24;4.70;;;2.25;;
18695;SDS011;22617;43.690;27.956;2022-07-23T03:49:27;2.72;;;2.10;;
18695;SDS011;22617;43.690;27.956;2022-07-23T03:54:30;3.75;;;2.50;;
18695;SDS011;22617;43.690;27.956;2022-07-23T03:59:32;5.53;;;2.90;;
18695;SDS011;22617;43.690;27.956;2022-07-23T04:04:35;4.03;;;2.40;;
18695;SDS011;22617;43.690;27.956;2022-07-23T04:09:39;3.10;;;2.38;;
18695;SDS011;22617;43.690;27.956;2022-07-23T04:14:47;4.28;;;2.38;;
18695;SDS011;22617;43.690;27.956;2022-07-23T04:19:50;5.10;;;2.20;;
18695;SDS011;22617;43.690;27.956;2022-07-23T04:24:57;3.65;;;2.38;;
18695;SDS011;22617;43.690;27.956;2022-07-23T04:30:01;4.47;;;2.70;;
18695;SDS011;22617;43.690;27.956;2022-07-23T04:35:04;6.88;;;2.70;;
18695;SDS011;22617;43.690;27.956;2022-07-23T04:40:09;7.55;;;2.90;;
18695;SDS011;22617;43.690;27.956;2022-07-23T04:45:14;3.97;;;2.63;;
18695;SDS011;22617;43.690;27.956;2022-07-23T04:50:18;3.92;;;2.70;;
18695;SDS011;22617;43.690;27.956;2022-07-23T04:55:27;3.22;;;2.25;;
18695;SDS011;22617;43.690;27.956;2022-07-23T05:00:31;3.72;;;2.63;;
18695;SDS011;22617;43.690;27.956;2022-07-23T05:05:34;5.60;;;2.80;;
18695;SDS011;22617;43.690;27.956;2022-07-23T05:10:45;5.15;;;2.80;;
18695;SDS011;22617;43.690;27.956;2022-07-23T05:15:49;7.55;;;2.90;;
18695;SDS011;22617;43.690;27.956;2022-07-23T05:20:52;6.78;;;3.33;;
18695;SDS011;22617;43.690;27.956;2022-07-23T05:25:57;8.60;;;3.40;;
18695;SDS011;22617;43.690;27.956;2022-07-23T05:31:02;4.18;;;2.90;;
18695;SDS011;22617;43.690;27.956;2022-07-23T05:36:07;9.88;;;3.70;;
18695;SDS011;22617;43.690;27.956;2022-07-23T05:41:19;7.25;;;2.90;;
18695;SDS011;22617;43.690;27.956;2022-07-23T05:46:22;7.07;;;3.03;;
18695;SDS011;22617;43.690;27.956;2022-07-23T05:51:31;5.30;;;3.25;;
18695;SDS011;22617;43.690;27.956;2022-07-23T05:56:35;7.57;;;2.90;;
18695;SDS011;22617;43.690;27.956;2022-07-23T06:01:37;7.00;;;3.40;;
18695;SDS011;22617;43.690;27.956;2022-07-23T06:06:43;7.78;;;2.90;;
18695;SDS011;22617;43.690;27.956;2022-07-23T06:11:47;5.93;;;3.50;;
18695;SDS011;22617;43.690;27.956;2022-07-23T06:16:50;5.72;;;3.40;;
18695;SDS011;22617;43.690;27.956;2022-07-23T06:21:53;6.15;;;3.20;;
18695;SDS011;22617;43.690;27.956;2022-07-23T06:26:56;7.68;;;3.35;;
18695;SDS011;22617;43.690;27.956;2022-07-23T06:31:59;6.20;;;3.45;;
18695;SDS011;22617;43.690;27.956;2022-07-23T06:37:02;6.82;;;3.50;;
18695;SDS011;22617;43.690;27.956;2022-07-23T06:42:06;8.82;;;4.07;;
18695;SDS011;22617;43.690;27.956;2022-07-23T06:47:12;7.03;;;3.50;;
18695;SDS011;22617;43.690;27.956;2022-07-23T06:52:15;6.45;;;3.80;;
18695;SDS011;22617;43.690;27.956;2022-07-23T06:57:19;7.53;;;3.67;;
18695;SDS011;22617;43.690;27.956;2022-07-23T07:02:23;4.32;;;3.40;;
18695;SDS011;22617;43.690;27.956;2022-07-23T07:07:28;6.43;;;3.70;;
18695;SDS011;22617;43.690;27.956;2022-07-23T07:12:33;5.93;;;3.78;;
18695;SDS011;22617;43.690;27.956;2022-07-23T07:17:35;5.05;;;3.90;;
18695;SDS011;22617;43.690;27.956;2022-07-23T07:22:38;5.20;;;3.53;;
18695;SDS011;22617;43.690;27.956;2022-07-23T07:27:42;8.75;;;3.55;;
18695;SDS011;22617;43.690;27.956;2022-07-23T07:32:45;5.90;;;3.60;;
18695;SDS011;22617;43.690;27.956;2022-07-23T07:37:58;8.23;;;4.43;;
18695;SDS011;22617;43.690;27.956;2022-07-23T07:43:02;5.05;;;3.90;;
18695;SDS011;22617;43.690;27.956;2022-07-23T07:48:05;6.30;;;3.90;;
18695;SDS011;22617;43.690;27.956;2022-07-23T07:53:08;5.50;;;3.78;;
18695;SDS011;22617;43.690;27.956;2022-07-23T07:58:11;5.22;;;3.60;;
18695;SDS011;22617;43.690;27.956;2022-07-23T08:03:14;7.45;;;4.05;;
18695;SDS011;22617;43.690;27.956;2022-07-23T08:08:17;5.47;;;3.55;;
18695;SDS011;22617;43.690;27.956;2022-07-23T08:13:21;5.55;;;3.65;;
18695;SDS011;22617;43.690;27.956;2022-07-23T08:18:24;6.35;;;4.05;;
18695;SDS011;22617;43.690;27.956;2022-07-23T08:23:27;5.80;;;3.67;;
18695;SDS011;22617;43.690;27.956;2022-07-23T08:28:32;7.85;;;4.00;;
18695;SDS011;22617;43.690;27.956;2022-07-23T08:33:35;9.98;;;4.47;;
18695;SDS011;22617;43.690;27.956;2022-07-23T08:38:38;7.72;;;4.00;;
18695;SDS011;22617;43.690;27.956;2022-07-23T08:43:42;6.75;;;3.90;;
18695;SDS011;22617;43.690;27.956;2022-07-23T08:48:47;8.82;;;4.05;;
18695;SDS011;22617;43.690;27.956;2022-07-23T08:53:51;5.97;;;4.03;;
18695;SDS011;22617;43.690;27.956;2022-07-23T08:58:56;7.38;;;3.78;;
18695;SDS011;22617;43.690;27.956;2022-07-23T09:04:00;8.35;;;3.75;;
18695;SDS011;22617;43.690;27.956;2022-07-23T09:09:15;4.35;;;3.42;;
18695;SDS011;22617;43.690;27.956;2022-07-23T09:14:22;12.02;;;4.18;;
18695;SDS011;22617;43.690;27.956;2022-07-23T09:19:38;5.93;;;3.65;;
18695;SDS011;22617;43.690;27.956;2022-07-23T09:24:44;8.80;;;3.70;;
18695;SDS011;22617;43.690;27.956;2022-07-23T09:30:06;7.47;;;4.03;;
18695;SDS011;22617;43.690;27.956;2022-07-23T09:35:09;5.85;;;3.80;;
18695;SDS011;22617;43.690;27.956;2022-07-23T09:40:13;4.95;;;3.72;;
18695;SDS011;22617;43.690;27.956;2022-07-23T09:45:20;6.78;;;3.70;;
18695;SDS011;22617;43.690;27.956;2022-07-23T09:50:23;3.97;;;3.53;;
18695;SDS011;22617;43.690;27.956;2022-07-23T09:55:30;7.38;;;3.80;;
18695;SDS011;22617;43.690;27.956;2022-07-23T10:00:38;6.53;;;3.90;;
18695;SDS011;22617;43.690;27.956;2022-07-23T10:05:41;5.97;;;4.25;;
18695;SDS011;22617;43.690;27.956;2022-07-23T10:11:03;6.60;;;3.58;;
18695;SDS011;22617;43.690;27.956;2022-07-23T10:16:19;8.80;;;3.97;;
18695;SDS011;22617;43.690;27.956;2022-07-23T10:21:30;8.02;;;4.50;;
18695;SDS011;22617;43.690;27.956;2022-07-23T10:26:41;7.32;;;3.70;;
18695;SDS011;22617;43.690;27.956;2022-07-23T10:31:56;4.85;;;3.60;;
18695;SDS011;22617;43.690;27.956;2022-07-23T10:37:07;6.65;;;3.78;;
18695;SDS011;22617;43.690;27.956;2022-07-23T10:42:24;7.45;;;3.70;;
18695;SDS011;22617;43.690;27.956;2022-07-23T10:47:36;13.02;;;4.35;;
18695;SDS011;22617;43.690;27.956;2022-07-23T10:58:19;8.93;;;3.80;;
18695;SDS011;22617;43.690;27.956;2022-07-23T11:03:31;7.03;;;3.50;;
18695;SDS011;22617;43.690;27.956;2022-07-23T11:08:37;9.50;;;3.50;;
18695;SDS011;22617;43.690;27.956;2022-07-23T11:13:45;5.15;;;3.17;;
18695;SDS011;22617;43.690;27.956;2022-07-23T11:24:09;7.22;;;3.63;;
18695;SDS011;22617;43.690;27.956;2022-07-23T11:34:54;6.25;;;3.33;;
18695;SDS011;22617;43.690;27.956;2022-07-23T11:39:57;8.60;;;3.90;;
18695;SDS011;22617;43.690;27.956;2022-07-23T11:45:00;6.03;;;3.92;;
18695;SDS011;22617;43.690;27.956;2022-07-23T11:50:05;14.00;;;3.63;;
18695;SDS011;22617;43.690;27.956;2022-07-23T11:55:09;6.53;;;3.50;;
18695;SDS011;22617;43.690;27.956;2022-07-23T12:00:14;3.88;;;3.40;;
18695;SDS011;22617;43.690;27.956;2022-07-23T12:05:21;6.75;;;3.97;;
18695;SDS011;22617;43.690;27.956;2022-07-23T12:10:26;7.10;;;3.50;;
18695;SDS011;22617;43.690;27.956;2022-07-23T12:15:31;5.47;;;3.92;;
18695;SDS011;22617;43.690;27.956;2022-07-23T12:20:35;9.23;;;4.20;;
18695;SDS011;22617;43.690;27.956;2022-07-23T12:25:41;6.68;;;3.58;;
18695;SDS011;22617;43.690;27.956;2022-07-23T12:30:46;5.50;;;3.17;;
18695;SDS011;22617;43.690;27.956;2022-07-23T12:35:50;5.43;;;3.35;;
18695;SDS011;22617;43.690;27.956;2022-07-23T12:40:57;5.10;;;3.28;;
18695;SDS011;22617;43.690;27.956;2022-07-23T12:46:02;7.43;;;3.60;;
18695;SDS011;22617;43.690;27.956;2022-07-23T12:51:08;4.35;;;3.40;;
18695;SDS011;22617;43.690;27.956;2022-07-23T12:56:22;7.97;;;3.58;;
18695;SDS011;22617;43.690;27.956;2022-07-23T13:01:30;4.75;;;3.25;;
18695;SDS011;22617;43.690;27.956;2022-07-23T13:06:36;3.90;;;3.28;;
18695;SDS011;22617;43.690;27.956;2022-07-23T13:11:41;5.15;;;3.33;;
18695;SDS011;22617;43.690;27.956;2022-07-23T13:16:45;5.47;;;3.58;;
18695;SDS011;22617;43.690;27.956;2022-07-23T13:21:50;6.90;;;3.42;;
18695;SDS011;22617;43.690;27.956;2022-07-23T13:26:53;4.82;;;3.28;;
18695;SDS011;22617;43.690;27.956;2022-07-23T13:31:56;6.03;;;3.28;;
18695;SDS011;22617;43.690;27.956;2022-07-23T13:37:00;6.00;;;3.22;;
18695;SDS011;22617;43.690;27.956;2022-07-23T13:42:02;5.22;;;2.97;;
18695;SDS011;22617;43.690;27.956;2022-07-23T13:47:08;7.10;;;3.25;;
18695;SDS011;22617;43.690;27.956;2022-07-23T13:52:11;4.95;;;3.30;;
18695;SDS011;22617;43.690;27.956;2022-07-23T13:57:14;4.80;;;3.10;;
18695;SDS011;22617;43.690;27.956;2022-07-23T14:02:18;6.35;;;3.20;;
18695;SDS011;22617;43.690;27.956;2022-07-23T14:07:27;5.32;;;3.08;;
18695;SDS011;22617;43.690;27.956;2022-07-23T14:12:29;5.55;;;3.30;;
18695;SDS011;22617;43.690;27.956;2022-07-23T14:17:35;4.28;;;3.10;;
18695;SDS011;22617;43.690;27.956;2022-07-23T14:22:39;7.60;;;2.92;;
18695;SDS011;22617;43.690;27.956;2022-07-23T14:27:43;9.20;;;3.10;;
18695;SDS011;22617;43.690;27.956;2022-07-23T14:32:47;5.95;;;3.00;;
18695;SDS011;22617;43.690;27.956;2022-07-23T14:37:51;5.60;;;3.22;;
18695;SDS011;22617;43.690;27.956;2022-07-23T14:42:54;3.92;;;2.50;;
18695;SDS011;22617;43.690;27.956;2022-07-23T14:47:56;5.00;;;2.90;;
18695;SDS011;22617;43.690;27.956;2022-07-23T14:53:01;3.97;;;2.90;;
18695;SDS011;22617;43.690;27.956;2022-07-23T14:58:04;6.88;;;4.45;;
18695;SDS011;22617;43.690;27.956;2022-07-23T15:03:08;5.32;;;3.45;;
18695;SDS011;22617;43.690;27.956;2022-07-23T15:08:12;3.60;;;2.92;;
18695;SDS011;22617;43.690;27.956;2022-07-23T15:13:19;4.03;;;3.05;;
18695;SDS011;22617;43.690;27.956;2022-07-23T15:18:22;5.13;;;3.15;;
18695;SDS011;22617;43.690;27.956;2022-07-23T15:23:27;3.42;;;2.53;;
18695;SDS011;22617;43.690;27.956;2022-07-23T15:28:32;3.72;;;2.28;;
18695;SDS011;22617;43.690;27.956;2022-07-23T15:33:36;4.45;;;2.97;;
18695;SDS011;22617;43.690;27.956;2022-07-23T15:38:40;3.70;;;3.00;;
18695;SDS011;22617;43.690;27.956;2022-07-23T15:43:45;5.90;;;2.80;;
18695;SDS011;22617;43.690;27.956;2022-07-23T15:48:48;4.88;;;2.60;;
18695;SDS011;22617;43.690;27.956;2022-07-23T15:53:54;7.38;;;2.72;;
18695;SDS011;22617;43.690;27.956;2022-07-23T15:58:58;4.57;;;2.55;;
18695;SDS011;22617;43.690;27.956;2022-07-23T16:04:02;3.13;;;2.38;;
18695;SDS011;22617;43.690;27.956;2022-07-23T16:09:08;4.93;;;2.63;;
18695;SDS011;22617;43.690;27.956;2022-07-23T16:14:20;4.55;;;2.60;;
18695;SDS011;22617;43.690;27.956;2022-07-23T16:19:24;5.65;;;2.80;;
18695;SDS011;22617;43.690;27.956;2022-07-23T16:24:28;5.13;;;2.50;;
18695;SDS011;22617;43.690;27.956;2022-07-23T16:29:31;3.05;;;2.40;;
18695;SDS011;22617;43.690;27.956;2022-07-23T16:34:34;3.55;;;2.58;;
18695;SDS011;22617;43.690;27.956;2022-07-23T16:39:38;5.40;;;2.42;;
18695;SDS011;22617;43.690;27.956;2022-07-23T16:44:41;4.10;;;2.08;;
18695;SDS011;22617;43.690;27.956;2022-07-23T16:49:44;3.55;;;2.78;;
18695;SDS011;22617;43.690;27.956;2022-07-23T16:54:48;4.88;;;2.40;;
18695;SDS011;22617;43.690;27.956;2022-07-23T16:59:51;3.67;;;2.58;;
18695;SDS011;22617;43.690;27.956;2022-07-23T17:04:54;4.20;;;2.60;;
18695;SDS011;22617;43.690;27.956;2022-07-23T17:09:57;6.65;;;2.80;;
18695;SDS011;22617;43.690;27.956;2022-07-23T17:15:00;2.75;;;2.40;;
18695;SDS011;22617;43.690;27.956;2022-07-23T17:20:09;5.82;;;2.78;;
18695;SDS011;22617;43.690;27.956;2022-07-23T17:25:13;4.80;;;2.40;;
18695;SDS011;22617;43.690;27.956;2022-07-23T17:30:16;3.78;;;2.70;;
18695;SDS011;22617;43.690;27.956;2022-07-23T17:35:20;6.22;;;2.75;;
18695;SDS011;22617;43.690;27.956;2022-07-23T17:40:24;5.15;;;3.10;;
18695;SDS011;22617;43.690;27.956;2022-07-23T17:45:27;4.25;;;2.50;;
18695;SDS011;22617;43.690;27.956;2022-07-23T17:50:30;4.57;;;2.58;;
18695;SDS011;22617;43.690;27.956;2022-07-23T17:55:33;4.65;;;2.55;;
18695;SDS011;22617;43.690;27.956;2022-07-23T18:00:37;4.28;;;2.38;;
18695;SDS011;22617;43.690;27.956;2022-07-23T18:05:40;3.20;;;2.40;;
18695;SDS011;22617;43.690;27.956;2022-07-23T18:10:44;3.70;;;2.50;;
18695;SDS011;22617;43.690;27.956;2022-07-23T18:15:47;3.95;;;2.22;;
18695;SDS011;22617;43.690;27.956;2022-07-23T18:20:49;4.07;;;2.47;;
18695;SDS011;22617;43.690;27.956;2022-07-23T18:25:53;3.67;;;2.38;;
18695;SDS011;22617;43.690;27.956;2022-07-23T18:30:57;5.70;;;2.78;;
18695;SDS011;22617;43.690;27.956;2022-07-23T18:36:00;3.17;;;2.13;;
18695;SDS011;22617;43.690;27.956;2022-07-23T18:41:05;3.20;;;2.17;;
18695;SDS011;22617;43.690;27.956;2022-07-23T18:46:08;5.80;;;2.72;;
18695;SDS011;22617;43.690;27.956;2022-07-23T18:51:12;6.03;;;2.90;;
18695;SDS011;22617;43.690;27.956;2022-07-23T18:56:16;5.90;;;2.50;;
18695;SDS011;22617;43.690;27.956;2022-07-23T19:01:20;8.80;;;2.78;;
18695;SDS011;22617;43.690;27.956;2022-07-23T19:06:25;4.90;;;2.80;;
18695;SDS011;22617;43.690;27.956;2022-07-23T19:11:30;7.57;;;2.72;;
18695;SDS011;22617;43.690;27.956;2022-07-23T19:16:35;3.40;;;2.40;;
18695;SDS011;22617;43.690;27.956;2022-07-23T19:21:39;4.18;;;2.42;;
18695;SDS011;22617;43.690;27.956;2022-07-23T19:26:43;5.70;;;2.25;;
18695;SDS011;22617;43.690;27.956;2022-07-23T19:31:46;4.78;;;2.55;;
18695;SDS011;22617;43.690;27.956;2022-07-23T19:36:49;4.75;;;2.75;;
18695;SDS011;22617;43.690;27.956;2022-07-23T19:41:54;6.25;;;2.97;;
18695;SDS011;22617;43.690;27.956;2022-07-23T19:46:57;6.00;;;2.40;;
18695;SDS011;22617;43.690;27.956;2022-07-23T19:52:00;5.18;;;2.45;;
18695;SDS011;22617;43.690;27.956;2022-07-23T19:57:04;5.80;;;2.65;;
18695;SDS011;22617;43.690;27.956;2022-07-23T20:02:07;4.28;;;2.40;;
18695;SDS011;22617;43.690;27.956;2022-07-23T20:07:10;5.78;;;2.30;;
18695;SDS011;22617;43.690;27.956;2022-07-23T20:12:14;9.40;;;2.85;;
18695;SDS011;22617;43.690;27.956;2022-07-23T20:17:17;4.55;;;2.45;;
18695;SDS011;22617;43.690;27.956;2022-07-23T20:22:20;5.50;;;2.70;;
18695;SDS011;22617;43.690;27.956;2022-07-23T20:27:23;5.13;;;2.60;;
18695;SDS011;22617;43.690;27.956;2022-07-23T20:32:26;3.72;;;2.22;;
18695;SDS011;22617;43.690;27.956;2022-07-23T20:37:29;6.13;;;2.90;;
18695;SDS011;22617;43.690;27.956;2022-07-23T20:42:33;7.07;;;2.85;;
18695;SDS011;22617;43.690;27.956;2022-07-23T20:47:36;4.57;;;2.95;;
18695;SDS011;22617;43.690;27.956;2022-07-23T20:52:39;7.57;;;2.70;;
18695;SDS011;22617;43.690;27.956;2022-07-23T20:57:43;8.43;;;2.67;;
18695;SDS011;22617;43.690;27.956;2022-07-23T21:02:46;5.32;;;2.65;;
18695;SDS011;22617;43.690;27.956;2022-07-23T21:07:50;4.32;;;2.55;;
18695;SDS011;22617;43.690;27.956;2022-07-23T21:12:53;4.53;;;2.50;;
18695;SDS011;22617;43.690;27.956;2022-07-23T21:17:56;4.03;;;2.50;;
18695;SDS011;22617;43.690;27.956;2022-07-23T21:23:48;7.53;;;3.30;;
18695;SDS011;22617;43.690;27.956;2022-07-23T21:28:53;4.88;;;3.00;;
18695;SDS011;22617;43.690;27.956;2022-07-23T21:33:56;4.22;;;2.80;;
18695;SDS011;22617;43.690;27.956;2022-07-23T21:38:59;4.97;;;3.05;;
18695;SDS011;22617;43.690;27.956;2022-07-23T21:44:03;7.13;;;3.17;;
18695;SDS011;22617;43.690;27.956;2022-07-23T21:49:07;3.75;;;2.50;;
18695;SDS011;22617;43.690;27.956;2022-07-23T21:54:12;4.75;;;3.00;;
18695;SDS011;22617;43.690;27.956;2022-07-23T21:59:18;8.02;;;3.42;;
18695;SDS011;22617;43.690;27.956;2022-07-23T22:04:21;4.38;;;3.25;;
18695;SDS011;22617;43.690;27.956;2022-07-23T22:09:24;5.18;;;3.38;;
18695;SDS011;22617;43.690;27.956;2022-07-23T22:14:27;6.05;;;3.17;;
18695;SDS011;22617;43.690;27.956;2022-07-23T22:19:30;4.45;;;3.08;;
18695;SDS011;22617;43.690;27.956;2022-07-23T22:24:33;5.75;;;3.55;;
18695;SDS011;22617;43.690;27.956;2022-07-23T22:29:36;7.00;;;3.55;;
18695;SDS011;22617;43.690;27.956;2022-07-23T22:34:39;8.63;;;3.50;;
18695;SDS011;22617;43.690;27.956;2022-07-23T22:39:41;8.43;;;4.05;;
18695;SDS011;22617;43.690;27.956;2022-07-23T22:44:44;5.22;;;3.50;;
18695;SDS011;22617;43.690;27.956;2022-07-23T22:49:47;5.03;;;3.22;;
18695;SDS011;22617;43.690;27.956;2022-07-23T22:54:50;4.55;;;3.28;;
18695;SDS011;22617;43.690;27.956;2022-07-23T22:59:53;4.63;;;3.20;;
18695;SDS011;22617;43.690;27.956;2022-07-23T23:04:56;5.05;;;2.90;;
18695;SDS011;22617;43.690;27.956;2022-07-23T23:09:59;4.88;;;3.63;;
18695;SDS011;22617;43.690;27.956;2022-07-23T23:15:02;4.43;;;3.28;;
18695;SDS011;22617;43.690;27.956;2022-07-23T23:20:05;4.80;;;2.75;;
18695;SDS011;22617;43.690;27.956;2022-07-23T23:25:09;5.90;;;3.28;;
18695;SDS011;22617;43.690;27.956;2022-07-23T23:30:12;6.43;;;3.10;;
18695;SDS011;22617;43.690;27.956;2022-07-23T23:35:15;4.82;;;2.72;;
18695;SDS011;22617;43.690;27.956;2022-07-23T23:40:18;6.80;;;3.40;;
18695;SDS011;22617;43.690;27.956;2022-07-23T23:45:22;6.65;;;2.85;;
18695;SDS011;22617;43.690;27.956;2022-07-23T23:50:25;4.68;;;2.90;;
18695;SDS011;22617;43.690;27.956;2022-07-23T23:55:28;4.35;;;2.78;;
